Time;durP1;ratioP1;P1;durP2;ratioP2;P2;SDS_P1;SDS_P2;PMS_P1;PMS_P2;Temp;Humidity;BMP_temperature;BMP_pressure;BME280_temperature;BME280_humidity;BME280_pressure;Samples;Min_cycle;Max_cycle;Signal;HPM_P1;HPM_P2
2022/07/17 00:00:13;;;;;;;7.70;4.97;;;;;;;15.69;69.00;99021.66;4793743;29;20129;-68
2022/07/17 00:02:38;;;;;;;6.38;4.88;;;;;;;15.68;69.17;99023.53;4807008;29;20042;-66
2022/07/17 00:05:05;;;;;;;7.47;4.65;;;;;;;15.71;68.97;99022.19;4806360;29;20142;-66
2022/07/17 00:07:30;;;;;;;8.13;4.60;;;;;;;15.73;68.72;99020.00;4806713;29;20057;-66
2022/07/17 00:09:56;;;;;;;11.85;4.63;;;;;;;15.74;68.67;99026.97;4794140;29;20138;-66
2022/07/17 00:12:22;;;;;;;8.20;4.60;;;;;;;15.74;69.10;99022.41;4772486;30;20051;-66
2022/07/17 00:14:47;;;;;;;7.38;4.88;;;;;;;15.70;68.83;99009.88;4788518;30;20047;-67
2022/07/17 00:17:14;;;;;;;5.47;4.35;;;;;;;15.69;69.09;99018.97;4757506;30;20055;-63
2022/07/17 00:19:40;;;;;;;7.40;4.82;;;;;;;15.68;68.59;99020.88;4788420;29;20051;-65
2022/07/17 00:22:06;;;;;;;6.45;4.68;;;;;;;15.72;68.66;99023.75;4788338;29;20047;-66
2022/07/17 00:24:31;;;;;;;8.13;5.47;;;;;;;15.70;69.03;99026.69;4788671;30;20051;-66
2022/07/17 00:26:57;;;;;;;8.27;5.05;;;;;;;15.70;68.87;99020.56;4788228;30;20104;-66
2022/07/17 00:29:22;;;;;;;9.43;5.18;;;;;;;15.69;68.89;99021.66;4788495;29;20063;-66
2022/07/17 00:31:48;;;;;;;6.95;4.75;;;;;;;15.68;68.70;99018.19;4788354;30;20051;-66
2022/07/17 00:34:14;;;;;;;6.97;4.70;;;;;;;15.71;68.94;99022.97;4799218;29;20047;-66
2022/07/17 00:36:40;;;;;;;6.68;4.72;;;;;;;15.70;68.61;99021.34;4805871;29;20051;-66
2022/07/17 00:39:06;;;;;;;9.70;4.75;;;;;;;15.73;68.56;99020.00;4774153;29;20050;-66
2022/07/17 00:41:32;;;;;;;5.85;5.00;;;;;;;15.75;68.49;99025.88;4789093;29;20047;-66
2022/07/17 00:44:11;;;;;;;6.93;4.75;;;;;;;15.75;68.44;99025.88;4787954;30;20242;-66
2022/07/17 00:46:38;;;;;;;7.47;4.90;;;;;;;15.76;68.67;99019.44;4771931;30;20044;-66
2022/07/17 00:49:05;;;;;;;5.93;4.78;;;;;;;15.76;68.14;99014.09;4787867;30;20108;-65
2022/07/17 00:51:32;;;;;;;6.50;4.63;;;;;;;15.76;68.70;99008.75;4787615;29;20063;-66
2022/07/17 00:53:58;;;;;;;7.45;5.00;;;;;;;15.77;68.25;99013.03;4772342;29;20126;-66
2022/07/17 00:56:25;;;;;;;7.13;5.20;;;;;;;15.74;68.37;99025.09;4788129;29;20070;-66
2022/07/17 00:58:51;;;;;;;6.82;5.20;;;;;;;15.74;68.68;99016.28;4791556;29;20078;-66
2022/07/17 01:01:17;;;;;;;7.65;4.78;;;;;;;15.72;68.66;99016.53;4789695;29;20076;-66
2022/07/17 01:03:43;;;;;;;9.75;5.45;;;;;;;15.70;69.02;99026.69;4805300;29;20063;-65
2022/07/17 01:06:09;;;;;;;10.77;5.57;;;;;;;15.66;69.22;99026.44;4782700;30;20089;-66
2022/07/17 01:08:35;;;;;;;11.63;6.40;;;;;;;15.58;70.06;99016.34;4788003;30;20097;-66
2022/07/17 01:11:02;;;;;;;7.05;5.35;;;;;;;15.54;70.19;99018.00;4787793;29;20051;-65
2022/07/17 01:13:28;;;;;;;8.70;5.60;;;;;;;15.53;70.53;99031.63;4771690;30;20083;-65
2022/07/17 01:15:54;;;;;;;9.20;6.00;;;;;;;15.52;71.23;99030.03;4786309;30;20051;-65
2022/07/17 01:18:19;;;;;;;7.90;6.63;;;;;;;15.47;71.53;99032.72;4771708;29;20429;-65
2022/07/17 01:20:47;;;;;;;10.68;7.25;;;;;;;15.48;71.63;99045.03;4771352;30;20047;-66
2022/07/17 01:23:14;;;;;;;8.57;6.65;;;;;;;15.44;71.42;99040.25;4771316;30;20050;-65
2022/07/17 01:25:40;;;;;;;8.68;6.32;;;;;;;15.45;71.09;99046.38;4787616;30;20047;-66
2022/07/17 01:28:06;;;;;;;10.07;5.55;;;;;;;15.44;71.20;99050.94;4787024;29;20046;-65
2022/07/17 01:30:32;;;;;;;10.23;5.60;;;;;;;15.46;70.73;99042.63;4787345;30;20059;-66
2022/07/17 01:32:58;;;;;;;8.43;5.55;;;;;;;15.48;70.96;99059.16;4785879;30;20043;-64
2022/07/17 01:35:24;;;;;;;9.10;5.55;;;;;;;15.49;70.49;99052.75;4787450;30;20060;-66
2022/07/17 01:37:49;;;;;;;6.85;5.40;;;;;;;15.51;70.85;99044.47;4787388;30;20051;-66
2022/07/17 01:40:17;;;;;;;7.63;5.45;;;;;;;15.54;70.37;99050.06;4770980;30;20565;-66
2022/07/17 01:42:48;;;;;;;12.02;5.65;;;;;;;15.55;70.53;99048.16;4787155;30;20058;-66
2022/07/17 01:45:15;;;;;;;13.80;5.90;;;;;;;15.57;70.30;99054.03;4787207;30;20054;-65
2022/07/17 01:47:41;;;;;;;8.98;5.75;;;;;;;15.58;69.75;99043.06;4785465;30;20442;-67
2022/07/17 01:50:08;;;;;;;12.10;5.38;;;;;;;15.60;70.01;99051.59;4786657;29;20051;-67
2022/07/17 01:52:39;;;;;;;9.45;5.05;;;;;;;15.54;69.86;99041.25;4785724;30;20155;-66
2022/07/17 01:55:06;;;;;;;12.15;5.07;;;;;;;15.63;69.62;99053.72;4787084;30;20047;-67
2022/07/17 01:57:32;;;;;;;10.38;5.30;;;;;;;15.67;69.70;99048.59;4786962;30;20113;-66
2022/07/17 01:59:58;;;;;;;8.40;5.15;;;;;;;15.72;69.42;99053.16;4802040;29;20059;-65
2022/07/17 02:02:24;;;;;;;9.73;5.32;;;;;;;15.74;69.55;99051.00;4804237;29;20105;-65
2022/07/17 02:04:50;;;;;;;6.68;4.97;;;;;;;15.75;69.44;99053.41;4773720;29;20097;-66
2022/07/17 02:07:15;;;;;;;9.98;6.18;;;;;;;15.75;69.22;99050.72;4783649;30;20039;-66
2022/07/17 02:09:42;;;;;;;9.45;6.85;;;;;;;15.75;69.57;99053.41;4786569;30;20590;-67
2022/07/17 02:12:08;;;;;;;9.32;6.47;;;;;;;15.76;69.78;99054.97;4786618;30;20049;-65
2022/07/17 02:14:34;;;;;;;8.63;6.32;;;;;;;15.74;69.82;99046.47;4786723;30;20051;-66
2022/07/17 02:16:59;;;;;;;8.40;6.10;;;;;;;15.75;69.51;99048.06;4786410;30;20043;-65
2022/07/17 02:19:25;;;;;;;11.40;6.38;;;;;;;15.80;69.15;99057.91;4786413;29;20073;-67
2022/07/17 02:21:51;;;;;;;10.02;6.38;;;;;;;15.80;69.48;99044.56;4786679;30;20498;-65
2022/07/17 02:24:16;;;;;;;8.32;6.00;;;;;;;15.83;69.35;99046.66;4786447;29;20047;-65
2022/07/17 02:26:42;;;;;;;9.02;6.22;;;;;;;15.84;69.21;99041.03;4785906;29;20051;-64
2022/07/17 02:29:08;;;;;;;6.95;6.00;;;;;;;15.84;69.48;99050.91;4786280;30;20086;-66
2022/07/17 02:31:33;;;;;;;11.30;6.60;;;;;;;15.82;69.36;99040.50;4785305;29;20421;-65
2022/07/17 02:33:59;;;;;;;8.25;5.72;;;;;;;15.84;69.28;99034.88;4786804;29;20059;-65
2022/07/17 02:36:25;;;;;;;9.82;5.47;;;;;;;15.86;69.20;99030.84;4782232;29;20095;-65
2022/07/17 02:38:51;;;;;;;7.28;5.32;;;;;;;15.86;68.64;99030.06;4803750;29;20073;-65
2022/07/17 02:41:17;;;;;;;6.88;5.57;;;;;;;15.88;68.52;99035.91;4758237;29;20046;-66
2022/07/17 02:43:42;;;;;;;13.95;6.20;;;;;;;15.86;68.58;99036.19;4803964;29;20139;-64
2022/07/17 02:46:08;;;;;;;14.48;6.20;;;;;;;15.88;68.89;99027.88;4773013;29;20509;-66
2022/07/17 02:48:34;;;;;;;14.68;6.35;;;;;;;15.93;68.75;99032.41;4804410;29;20046;-65
2022/07/17 02:50:59;;;;;;;20.50;7.00;;;;;;;15.94;68.59;99031.31;4804309;29;20104;-66
2022/07/17 02:53:26;;;;;;;32.33;8.02;;;;;;;15.94;68.98;99032.09;4804487;29;20061;-65
2022/07/17 02:55:52;;;;;;;20.80;6.85;;;;;;;15.97;68.92;99036.91;4804241;29;20430;-66
2022/07/17 02:58:18;;;;;;;12.13;6.65;;;;;;;16.01;68.73;99037.16;4803973;29;20119;-66
2022/07/17 03:00:44;;;;;;;16.67;8.98;;;;;;;16.06;68.61;99042.44;4788764;29;20595;-66
2022/07/17 03:03:09;;;;;;;16.67;8.27;;;;;;;16.14;68.63;99044.50;4791359;29;20050;-65
2022/07/17 03:05:35;;;;;;;10.95;5.88;;;;;;;16.20;68.47;99048.72;4807880;29;20046;-68
2022/07/17 03:08:01;;;;;;;9.35;6.10;;;;;;;16.28;68.32;99058.81;4808014;29;20050;-64
2022/07/17 03:10:26;;;;;;;11.88;6.18;;;;;;;16.32;68.53;99054.50;4791537;29;20058;-66
2022/07/17 03:12:52;;;;;;;8.70;6.03;;;;;;;16.41;68.36;99061.88;4791457;29;20039;-65
2022/07/17 03:15:18;;;;;;;18.30;6.25;;;;;;;16.48;68.13;99052.44;4808057;29;20042;-65
2022/07/17 03:17:43;;;;;;;10.30;6.13;;;;;;;16.50;68.41;99050.31;4805596;29;20043;-66
2022/07/17 03:20:10;;;;;;;11.70;6.72;;;;;;;16.52;68.45;99061.50;4789876;30;20054;-66
2022/07/17 03:22:36;;;;;;;9.20;5.78;;;;;;;16.55;67.50;99054.78;4788349;29;20047;-66
2022/07/17 03:25:01;;;;;;;9.40;5.97;;;;;;;16.57;66.62;99049.94;4789514;30;20059;-65
2022/07/17 03:27:29;;;;;;;10.57;6.07;;;;;;;16.65;66.35;99056.53;4788246;30;20058;-62
2022/07/17 03:29:54;;;;;;;11.15;6.53;;;;;;;16.72;65.93;99062.34;4789618;30;20099;-66
2022/07/17 03:32:21;;;;;;;10.93;7.78;;;;;;;16.78;65.81;99062.03;4773148;30;20455;-65
2022/07/17 03:34:47;;;;;;;9.75;6.30;;;;;;;16.78;65.63;99054.00;4789403;30;20077;-67
2022/07/17 03:37:13;;;;;;;9.70;5.90;;;;;;;16.81;65.81;99060.66;4789635;30;20051;-66
2022/07/17 03:39:39;;;;;;;11.90;5.80;;;;;;;16.80;66.24;99059.09;4789265;29;20044;-66
2022/07/17 03:42:04;;;;;;;7.78;6.00;;;;;;;16.78;66.62;99078.09;4789295;30;20047;-66
2022/07/17 03:44:30;;;;;;;8.35;5.70;;;;;;;16.61;67.31;99072.38;4773070;30;20071;-65
2022/07/17 03:46:56;;;;;;;7.10;5.72;;;;;;;16.52;68.23;99084.78;4787911;29;20054;-64
2022/07/17 03:49:22;;;;;;;12.45;5.68;;;;;;;16.46;68.36;99084.03;4789080;30;20047;-64
2022/07/17 03:51:49;;;;;;;6.07;5.13;;;;;;;16.41;67.90;99080.59;4773189;30;20053;-62
2022/07/17 03:54:14;;;;;;;6.20;4.43;;;;;;;16.37;67.83;99092.97;4788997;30;20055;-66
2022/07/17 03:56:40;;;;;;;5.60;3.97;;;;;;;16.32;66.89;99091.94;4789097;30;20129;-66
2022/07/17 03:59:05;;;;;;;5.57;3.22;;;;;;;16.28;65.95;99092.78;4802358;29;20467;-65
2022/07/17 04:01:31;;;;;;;3.88;2.80;;;;;;;16.17;65.64;99096.63;4807245;29;20414;-65
2022/07/17 04:03:57;;;;;;;3.03;2.20;;;;;;;16.04;65.57;99103.41;4806811;29;20043;-65
2022/07/17 04:06:23;;;;;;;4.53;2.17;;;;;;;15.87;67.51;99109.94;4801964;29;20051;-66
2022/07/17 04:08:48;;;;;;;4.47;2.53;;;;;;;15.85;70.81;99105.97;4788658;30;20062;-65
2022/07/17 04:11:14;;;;;;;4.55;2.00;;;;;;;15.81;69.63;99102.25;4789164;29;20043;-65
2022/07/17 04:13:39;;;;;;;1.83;1.63;;;;;;;15.69;67.33;99094.59;4789163;30;20453;-65
2022/07/17 04:16:05;;;;;;;9.05;4.68;;;;;;;15.70;68.97;99098.06;4788948;30;20122;-65
2022/07/17 04:18:35;;;;;;;5.32;2.15;;;;;;;15.65;68.76;99096.19;4798651;29;20071;-65
2022/07/17 04:21:09;;;;;;;5.18;2.30;;;;;;;15.65;70.92;99102.34;4775868;29;20093;-65
2022/07/17 04:23:35;;;;;;;3.95;2.25;;;;;;;15.65;70.51;99094.31;4806996;29;20043;-65
2022/07/17 04:26:02;;;;;;;3.53;1.63;;;;;;;15.61;69.02;99092.47;4806240;29;20050;-66
2022/07/17 04:28:28;;;;;;;3.83;1.60;;;;;;;15.58;71.64;99080.47;4799171;29;20107;-65
2022/07/17 04:30:53;;;;;;;3.78;1.67;;;;;;;15.49;68.55;99073.31;4772351;30;20518;-65
2022/07/17 04:33:19;;;;;;;5.53;3.28;;;;;;;15.44;70.12;99074.97;4795086;29;20131;-64
2022/07/17 04:35:45;;;;;;;7.32;2.70;;;;;;;15.40;70.25;99073.09;4794702;29;20062;-64
2022/07/17 04:38:11;;;;;;;4.28;1.35;;;;;;;15.32;69.78;99068.34;4796568;29;20067;-63
2022/07/17 04:40:38;;;;;;;2.20;1.50;;;;;;;15.27;69.81;99063.84;4790260;29;20145;-64
2022/07/17 04:43:04;;;;;;;1.52;1.30;;;;;;;15.26;67.50;99064.91;4805237;29;20086;-64
2022/07/17 04:45:30;;;;;;;1.30;1.20;;;;;;;15.37;67.88;99063.78;4788539;30;20051;-65
2022/07/17 04:47:56;;;;;;;3.78;1.63;;;;;;;15.49;72.21;99055.41;4788120;29;20058;-63
2022/07/17 04:50:22;;;;;;;1.75;1.40;;;;;;;15.42;70.53;99054.94;4788186;30;20047;-64
2022/07/17 04:52:48;;;;;;;1.98;1.15;;;;;;;15.55;68.24;99054.31;4788015;30;20043;-64
2022/07/17 04:55:14;;;;;;;1.20;1.10;;;;;;;15.62;66.95;99052.13;4788302;30;20403;-63
2022/07/17 04:57:40;;;;;;;1.33;0.90;;;;;;;15.74;65.95;99048.34;4805245;29;20047;-65
2022/07/17 05:00:07;;;;;;;0.90;0.90;;;;;;;15.86;64.76;99046.91;4805490;29;20138;-65
2022/07/17 05:02:33;;;;;;;0.98;0.90;;;;;;;16.00;62.11;99048.91;4806018;29;20091;-64
2022/07/17 05:04:58;;;;;;;1.05;1.00;;;;;;;16.23;64.16;99044.69;4806101;29;20054;-66
2022/07/17 05:07:24;;;;;;;2.15;1.10;;;;;;;16.47;64.51;99055.41;4805738;29;20130;-64
2022/07/17 05:09:50;;;;;;;2.20;1.10;;;;;;;16.79;64.42;99046.75;4788008;29;20055;-64
2022/07/17 05:12:15;;;;;;;1.10;0.90;;;;;;;16.95;60.23;99053.53;4786532;30;20055;-65
2022/07/17 05:14:41;;;;;;;0.80;0.80;;;;;;;17.23;60.42;99048.34;4787994;30;20059;-66
2022/07/17 05:17:07;;;;;;;1.25;0.98;;;;;;;17.60;61.18;99062.81;4799997;29;20046;-65
2022/07/17 05:19:32;;;;;;;1.67;1.00;;;;;;;17.84;59.15;99057.38;4789258;29;20143;-65
2022/07/17 05:21:58;;;;;;;1.75;0.90;;;;;;;18.00;59.60;99061.41;4802117;29;20049;-65
2022/07/17 05:24:24;;;;;;;2.92;2.72;;;;;;;18.10;59.49;99063.91;4796046;29;20058;-64
2022/07/17 05:26:50;;;;;;;3.72;3.42;;;;;;;18.26;60.53;99063.63;4788491;29;20066;-67
2022/07/17 05:29:16;;;;;;;2.03;1.60;;;;;;;18.45;59.46;99066.25;4787605;29;20526;-67
2022/07/17 05:31:44;;;;;;;1.75;1.60;;;;;;;18.52;58.35;99066.66;4787612;30;20050;-66
2022/07/17 05:34:10;;;;;;;1.33;1.00;;;;;;;18.60;58.00;99069.44;4787247;30;20087;-66
2022/07/17 05:36:35;;;;;;;3.67;1.20;;;;;;;18.76;57.20;99064.59;4771354;30;20048;-64
2022/07/17 05:39:01;;;;;;;2.75;1.20;;;;;;;18.81;58.42;99071.75;4771413;29;20047;-65
2022/07/17 05:41:26;;;;;;;2.53;2.00;;;;;;;18.86;59.25;99077.03;4805180;29;20054;-67
2022/07/17 05:43:52;;;;;;;3.00;2.80;;;;;;;18.96;59.99;99081.41;4805130;29;20077;-66
2022/07/17 05:46:18;;;;;;;1.70;1.60;;;;;;;18.92;60.23;99070.47;4804757;29;20047;-66
2022/07/17 05:48:44;;;;;;;1.88;1.75;;;;;;;18.95;59.66;99082.50;4804909;29;20055;-66
2022/07/17 05:51:09;;;;;;;3.75;1.40;;;;;;;19.17;59.61;99074.50;4804866;29;20066;-64
2022/07/17 05:53:35;;;;;;;2.33;1.30;;;;;;;19.26;60.95;99086.13;4805281;29;20103;-66
2022/07/17 05:56:01;;;;;;;1.30;1.20;;;;;;;19.24;59.71;99082.94;4798900;29;20521;-67
2022/07/17 05:58:26;;;;;;;1.58;1.08;;;;;;;19.15;58.27;99065.97;4787287;30;20496;-70
2022/07/17 06:00:53;;;;;;;1.30;1.20;;;;;;;19.11;58.16;99059.56;4801425;29;20050;-66
2022/07/17 06:03:19;;;;;;;1.10;1.00;;;;;;;19.16;59.05;99059.47;4805225;29;20046;-65
2022/07/17 06:05:45;;;;;;;1.80;1.00;;;;;;;19.26;58.37;99055.75;4791233;29;20055;-63
2022/07/17 06:08:11;;;;;;;1.38;1.10;;;;;;;19.43;58.44;99057.81;4792447;29;20054;-65
2022/07/17 06:10:38;;;;;;;1.65;1.00;;;;;;;19.38;57.34;99058.72;4804764;29;20054;-66
2022/07/17 06:13:04;;;;;;;2.22;1.15;;;;;;;19.25;58.63;99060.34;4804941;29;20063;-66
2022/07/17 06:15:30;;;;;;;1.20;1.10;;;;;;;19.14;59.92;99052.81;4803877;29;20079;-65
2022/07/17 06:18:00;;;;;;;1.33;0.90;;;;;;;19.31;58.04;99061.03;4804857;29;20125;-65
2022/07/17 06:20:26;;;;;;;1.58;1.20;;;;;;;19.36;58.94;99054.75;4804601;29;20498;-66
2022/07/17 06:22:51;;;;;;;1.05;0.90;;;;;;;19.45;57.43;99059.09;4804842;29;20047;-65
2022/07/17 06:25:17;;;;;;;1.00;0.95;;;;;;;19.45;57.46;99061.78;4804491;29;20061;-66
2022/07/17 06:27:43;;;;;;;2.15;1.10;;;;;;;19.37;58.02;99054.44;4804251;29;20247;-65
2022/07/17 06:30:10;;;;;;;1.45;1.00;;;;;;;19.44;57.45;99057.53;4804337;29;20457;-65
2022/07/17 06:32:35;;;;;;;1.52;0.85;;;;;;;19.39;55.57;99062.22;4804553;29;20069;-65
2022/07/17 06:35:01;;;;;;;2.33;1.20;;;;;;;19.40;55.90;99063.78;4793092;29;20051;-65
2022/07/17 06:37:27;;;;;;;1.20;1.10;;;;;;;19.40;54.33;99061.09;4786025;29;20502;-64
2022/07/17 06:39:53;;;;;;;2.92;1.13;;;;;;;19.44;54.32;99054.00;4786190;30;20071;-66
2022/07/17 06:42:18;;;;;;;0.90;0.90;;;;;;;19.46;55.07;99057.22;4770191;30;20055;-66
2022/07/17 06:44:44;;;;;;;1.27;1.00;;;;;;;19.52;56.12;99061.38;4786275;29;20077;-66
2022/07/17 06:47:10;;;;;;;3.53;1.10;;;;;;;19.51;53.11;99046.34;4786345;30;20460;-64
2022/07/17 06:49:36;;;;;;;1.40;1.30;;;;;;;19.36;52.60;99050.19;4786472;30;20054;-65
2022/07/17 06:52:01;;;;;;;1.58;1.00;;;;;;;19.35;53.66;99047.78;4786206;30;20047;-63
2022/07/17 06:54:27;;;;;;;1.13;0.90;;;;;;;19.38;52.24;99052.53;4791917;29;20043;-65
2022/07/17 06:56:53;;;;;;;1.45;1.10;;;;;;;19.35;53.57;99043.19;4778681;30;20508;-65
2022/07/17 06:59:19;;;;;;;1.02;0.90;;;;;;;19.33;53.35;99050.78;4786515;30;20078;-65
2022/07/17 07:01:45;;;;;;;1.15;1.05;;;;;;;19.25;54.39;99046.91;4786284;30;20054;-66
2022/07/17 07:04:11;;;;;;;1.23;1.00;;;;;;;19.26;54.48;99048.50;4769923;30;20047;-65
2022/07/17 07:06:37;;;;;;;1.52;1.00;;;;;;;19.30;52.96;99048.72;4786044;30;20108;-65
2022/07/17 07:09:03;;;;;;;0.90;0.90;;;;;;;19.47;51.74;99045.34;4786239;30;20403;-65
2022/07/17 07:11:29;;;;;;;2.35;1.10;;;;;;;19.59;52.29;99060.94;4786321;30;20096;-66
2022/07/17 07:13:55;;;;;;;1.20;1.10;;;;;;;19.63;51.28;99053.88;4787980;29;20420;-66
2022/07/17 07:16:20;;;;;;;1.17;1.10;;;;;;;19.65;51.21;99049.00;4803846;29;20067;-66
2022/07/17 07:18:47;;;;;;;2.35;0.93;;;;;;;19.64;51.34;99044.69;4804594;29;20051;-66
2022/07/17 07:21:12;;;;;;;1.23;1.08;;;;;;;19.70;50.59;99048.88;4785006;29;20074;-69
2022/07/17 07:23:40;;;;;;;1.63;1.30;;;;;;;19.75;51.40;99043.38;4770408;30;20047;-66
2022/07/17 07:26:06;;;;;;;1.70;1.60;;;;;;;19.77;50.00;99049.25;4787945;29;20164;-67
2022/07/17 07:28:33;;;;;;;1.45;1.30;;;;;;;19.84;49.83;99043.44;4770165;30;20062;-65
2022/07/17 07:30:59;;;;;;;1.77;1.25;;;;;;;19.85;49.58;99039.63;4785415;30;20047;-67
2022/07/17 07:33:24;;;;;;;1.60;1.23;;;;;;;19.84;50.89;99040.75;4784790;30;20047;-64
2022/07/17 07:35:50;;;;;;;1.40;1.30;;;;;;;19.93;49.75;99049.66;4786348;29;20434;-67
2022/07/17 07:38:17;;;;;;;1.58;1.17;;;;;;;19.97;50.04;99039.88;4754826;29;20043;-64
2022/07/17 07:40:43;;;;;;;3.08;1.30;;;;;;;20.01;51.64;99043.53;4785703;30;20101;-66
2022/07/17 07:43:09;;;;;;;1.50;1.40;;;;;;;20.10;52.08;99036.31;4786254;29;20066;-66
2022/07/17 07:45:34;;;;;;;1.38;1.27;;;;;;;20.18;50.42;99026.72;4785802;30;20146;-65
2022/07/17 07:48:00;;;;;;;5.05;2.17;;;;;;;20.14;50.37;99021.13;4771687;30;20459;-65
2022/07/17 07:50:28;;;;;;;1.88;1.60;;;;;;;20.14;48.43;99017.66;4785903;30;20055;-63
2022/07/17 07:52:54;;;;;;;1.83;1.15;;;;;;;20.16;49.08;99020.81;4771361;30;20135;-62
2022/07/17 07:55:21;;;;;;;1.60;1.48;;;;;;;20.22;50.20;99016.91;4776772;29;20065;-62
2022/07/17 07:58:01;;;;;;;2.08;1.10;;;;;;;20.24;47.40;99019.28;4789729;29;20532;-63
2022/07/17 08:00:27;;;;;;;2.40;1.20;;;;;;;20.39;47.10;99030.44;4807233;29;20065;-62
2022/07/17 08:02:53;;;;;;;3.65;1.20;;;;;;;20.45;44.62;99031.09;4805859;29;20408;-62
2022/07/17 08:05:18;;;;;;;1.17;1.08;;;;;;;20.47;44.38;99028.06;4805548;29;20047;-63
2022/07/17 08:07:44;;;;;;;1.25;1.13;;;;;;;20.41;45.02;99033.63;4801821;29;20083;-63
2022/07/17 08:10:10;;;;;;;1.95;1.20;;;;;;;20.47;45.88;99036.16;4791925;29;20057;-64
2022/07/17 08:12:36;;;;;;;2.78;1.60;;;;;;;20.57;46.22;99041.28;4790262;29;20053;-59
2022/07/17 08:15:05;;;;;;;5.68;1.30;;;;;;;20.68;46.92;99048.00;4789640;29;20075;-63
2022/07/17 08:17:33;;;;;;;6.65;4.35;;;;;;;20.85;46.02;99044.53;4806966;29;20054;-61
2022/07/17 08:20:03;;;;;;;1.40;1.30;;;;;;;20.98;44.83;99054.41;4760668;29;20046;-63
2022/07/17 08:22:29;;;;;;;1.20;1.10;;;;;;;21.05;43.71;99056.63;4790579;29;20165;-63
2022/07/17 08:24:54;;;;;;;1.80;1.20;;;;;;;21.21;43.76;99055.06;4806844;29;20159;-64
2022/07/17 08:27:21;;;;;;;3.20;1.40;;;;;;;21.40;42.09;99059.38;4806621;29;20552;-63
2022/07/17 08:29:46;;;;;;;4.45;1.40;;;;;;;21.61;41.80;99054.94;4775260;29;20062;-64
2022/07/17 08:32:12;;;;;;;4.80;1.40;;;;;;;21.75;42.79;99063.66;4806058;29;20043;-63
2022/07/17 08:34:38;;;;;;;1.50;1.40;;;;;;;21.81;42.55;99056.19;4790284;29;20597;-63
2022/07/17 08:37:03;;;;;;;2.50;1.40;;;;;;;21.70;42.60;99054.91;4806400;29;20428;-63
2022/07/17 08:39:29;;;;;;;2.10;1.52;;;;;;;21.57;43.44;99051.28;4790085;29;20043;-65
2022/07/17 08:41:55;;;;;;;1.73;1.30;;;;;;;21.58;43.26;99058.25;4806336;29;20139;-64
2022/07/17 08:44:20;;;;;;;2.20;1.20;;;;;;;21.63;43.73;99066.19;4806245;29;20514;-63
2022/07/17 08:46:46;;;;;;;3.35;1.77;;;;;;;21.41;43.15;99066.34;4806218;29;20054;-63
2022/07/17 08:49:13;;;;;;;3.53;1.80;;;;;;;21.18;40.65;99065.66;4789790;29;20138;-63
2022/07/17 08:51:39;;;;;;;4.60;1.42;;;;;;;21.10;39.08;99067.25;4805967;29;20058;-63
2022/07/17 08:54:05;;;;;;;2.05;1.48;;;;;;;20.87;38.69;99078.13;4789996;29;20142;-63
2022/07/17 08:56:31;;;;;;;2.40;1.60;;;;;;;20.68;37.90;99069.53;4805981;29;20517;-63
2022/07/17 08:58:56;;;;;;;1.85;1.38;;;;;;;20.61;37.97;99077.25;4805054;29;20062;-62
2022/07/17 09:01:22;;;;;;;2.47;1.50;;;;;;;20.43;39.87;99095.22;4805808;29;20043;-65
2022/07/17 09:03:56;;;;;;;5.85;1.75;;;;;;;20.11;41.57;99094.38;4774911;29;20418;-64
2022/07/17 09:06:21;;;;;;;3.17;2.20;;;;;;;19.43;50.31;99106.19;4805758;29;20618;-63
2022/07/17 09:08:47;;;;;;;6.00;1.95;;;;;;;18.44;62.55;99115.63;4805690;29;20145;-64
2022/07/17 09:11:13;;;;;;;4.85;2.00;;;;;;;17.37;73.83;99105.47;4805594;29;20142;-62
2022/07/17 09:13:42;;;;;;;6.18;3.47;;;;;;;16.80;78.02;99089.31;4805975;29;20134;-63
2022/07/17 09:16:11;;;;;;;2.85;1.65;;;;;;;16.58;74.13;99092.47;4805659;29;20099;-64
2022/07/17 09:18:49;;;;;;;10.40;2.05;;;;;;;16.43;68.10;99087.28;4806101;29;20129;-64
2022/07/17 09:21:23;;;;;;;1.27;1.17;;;;;;;16.50;70.92;99095.78;4789823;29;20047;-63
2022/07/17 09:24:04;;;;;;;1.98;1.30;;;;;;;16.72;68.97;99089.13;4804693;29;20046;-64
2022/07/17 09:26:30;;;;;;;1.95;1.10;;;;;;;16.88;65.88;99089.75;4805878;29;20517;-64
2022/07/17 09:28:56;;;;;;;1.85;1.35;;;;;;;17.19;62.77;99095.56;4805388;29;20085;-64
2022/07/17 09:31:26;;;;;;;5.78;1.77;;;;;;;17.60;68.28;99100.34;4805682;29;20089;-64
2022/07/17 09:33:52;;;;;;;2.08;1.42;;;;;;;17.77;60.10;99094.47;4805598;29;20066;-63
2022/07/17 09:36:17;;;;;;;2.85;1.70;;;;;;;18.01;67.13;99097.88;4805569;29;20119;-64
2022/07/17 09:38:44;;;;;;;3.05;1.40;;;;;;;18.35;61.11;99094.88;4804126;29;20502;-66
2022/07/17 09:41:15;;;;;;;11.25;8.35;;;;;;;18.70;64.01;99089.91;4804428;29;20039;-64
2022/07/17 09:43:58;;;;;;;4.45;1.80;;;;;;;19.07;61.44;99082.78;4805401;29;20054;-65
2022/07/17 09:46:30;;;;;;;2.80;1.70;;;;;;;19.33;56.01;99087.63;4788996;29;20581;-64
2022/07/17 09:49:01;;;;;;;3.08;1.65;;;;;;;19.57;54.66;99077.38;4805220;29;20058;-64
2022/07/17 09:51:36;;;;;;;1.98;1.75;;;;;;;19.82;56.81;99080.59;4789161;29;20074;-64
2022/07/17 09:54:04;;;;;;;2.85;1.70;;;;;;;20.06;55.19;99070.31;4804192;29;20138;-63
2022/07/17 09:56:31;;;;;;;2.05;1.58;;;;;;;20.31;56.25;99068.88;4789024;29;20047;-64
2022/07/17 09:59:09;;;;;;;1.75;1.50;;;;;;;20.56;54.77;99062.03;4788989;29;20424;-64
2022/07/17 10:01:36;;;;;;;5.07;1.92;;;;;;;20.94;55.05;99064.22;4805273;29;20129;-64
2022/07/17 10:04:02;;;;;;;3.65;1.60;;;;;;;21.30;48.89;99058.56;4804863;29;20084;-65
2022/07/17 10:06:28;;;;;;;2.65;1.25;;;;;;;21.42;48.32;99062.56;4773803;29;20042;-65
2022/07/17 10:08:55;;;;;;;2.40;1.73;;;;;;;21.46;48.07;99058.91;4804954;29;20436;-64
2022/07/17 10:11:22;;;;;;;1.60;1.50;;;;;;;21.48;46.86;99064.78;4804425;29;20051;-64
2022/07/17 10:13:49;;;;;;;3.08;2.17;;;;;;;21.53;45.66;99069.19;4773855;29;20047;-64
2022/07/17 10:16:26;;;;;;;5.30;2.60;;;;;;;21.57;43.70;99058.59;4788765;29;20046;-65
2022/07/17 10:18:54;;;;;;;2.58;1.77;;;;;;;21.61;42.91;99059.53;4804821;29;20047;-64
2022/07/17 10:21:21;;;;;;;2.22;1.35;;;;;;;21.62;44.19;99063.81;4788985;29;20039;-64
2022/07/17 10:23:48;;;;;;;1.92;1.20;;;;;;;21.67;41.54;99056.34;4804574;29;20046;-65
2022/07/17 10:26:14;;;;;;;1.88;1.20;;;;;;;21.63;43.08;99068.91;4801678;29;20077;-64
2022/07/17 10:28:42;;;;;;;1.88;1.08;;;;;;;21.60;42.71;99057.97;4804910;29;20485;-66
2022/07/17 10:31:08;;;;;;;2.22;1.27;;;;;;;21.63;42.51;99066.19;4804474;29;20051;-64
2022/07/17 10:33:34;;;;;;;1.85;1.60;;;;;;;21.80;42.79;99061.91;4804871;29;20430;-65
2022/07/17 10:36:00;;;;;;;2.88;1.40;;;;;;;21.94;45.09;99068.72;4804665;29;20271;-66
2022/07/17 10:38:27;;;;;;;2.78;1.60;;;;;;;22.21;43.47;99067.56;4804740;29;20066;-67
2022/07/17 10:41:00;;;;;;;3.90;1.77;;;;;;;22.38;43.08;99064.03;4788158;29;20043;-65
2022/07/17 10:43:26;;;;;;;1.90;1.67;;;;;;;22.46;43.80;99062.38;4788238;29;20069;-64
2022/07/17 10:45:52;;;;;;;2.67;1.63;;;;;;;22.58;42.95;99056.28;4788127;29;20051;-65
2022/07/17 10:48:20;;;;;;;2.55;1.70;;;;;;;22.77;45.28;99066.72;4804367;29;20165;-65
2022/07/17 10:50:48;;;;;;;2.65;1.67;;;;;;;22.72;44.25;99069.59;4804503;29;20051;-65
2022/07/17 10:53:27;;;;;;;2.63;1.70;;;;;;;22.72;41.02;99064.19;4788024;29;20043;-64
2022/07/17 10:56:07;;;;;;;3.37;1.70;;;;;;;22.55;42.05;99070.44;4804483;29;20092;-64
2022/07/17 10:58:42;;;;;;;1.70;1.60;;;;;;;22.44;41.15;99070.81;4804658;29;20051;-64
2022/07/17 11:01:16;;;;;;;2.60;1.80;;;;;;;22.40;42.51;99069.09;4804455;29;20081;-64
2022/07/17 11:03:42;;;;;;;2.30;1.83;;;;;;;22.54;41.74;99068.88;4804676;29;20427;-63
2022/07/17 11:06:09;;;;;;;4.05;1.80;;;;;;;22.56;42.42;99058.53;4804398;29;20061;-65
2022/07/17 11:08:39;;;;;;;3.20;1.65;;;;;;;22.41;43.31;99057.97;4788014;29;20062;-64
2022/07/17 11:11:05;;;;;;;2.60;2.20;;;;;;;22.42;41.37;99043.34;4804006;29;20055;-64
2022/07/17 11:13:31;;;;;;;2.53;2.00;;;;;;;22.44;40.91;99056.50;4803920;29;20054;-64
2022/07/17 11:15:57;;;;;;;3.22;2.10;;;;;;;22.28;40.97;99045.47;4787848;29;20140;-65
2022/07/17 11:18:23;;;;;;;2.50;1.80;;;;;;;22.17;41.28;99046.91;4804369;29;20042;-64
2022/07/17 11:20:57;;;;;;;1.63;1.52;;;;;;;22.38;41.06;99045.13;4804025;29;20046;-65
2022/07/17 11:23:25;;;;;;;2.17;1.58;;;;;;;22.52;39.80;99044.09;4790959;29;20049;-65
2022/07/17 11:26:04;;;;;;;1.58;1.40;;;;;;;22.76;39.47;99057.78;4807710;29;20137;-62
2022/07/17 11:28:42;;;;;;;2.60;1.43;;;;;;;22.81;38.59;99060.31;4805949;29;20076;-63